Time;durP1;ratioP1;P1;durP2;ratioP2;P2;SDS_P1;SDS_P2;PMS_P1;PMS_P2;Temp;Humidity;BMP_temperature;BMP_pressure;BME280_temperature;BME280_humidity;BME280_pressure;Samples;Min_cycle;Max_cycle;Signal;HPM_P1;HPM_P2
2023/06/30 00:01:19;;;;;;;4.95;2.10;;;15.50;99.90;;;;;;5038475;28;20039;-74
2023/06/30 00:03:45;;;;;;;8.45;2.08;;;15.50;99.90;;;;;;5038438;28;20111;-73
2023/06/30 00:06:11;;;;;;;7.90;2.83;;;15.50;99.90;;;;;;4971966;28;20043;-73
2023/06/30 00:08:37;;;;;;;9.88;2.53;;;15.40;99.90;;;;;;5038779;28;20051;-74
2023/06/30 00:11:03;;;;;;;9.13;2.60;;;15.40;99.90;;;;;;4971829;28;20114;-73
2023/06/30 00:13:28;;;;;;;7.55;2.22;;;15.30;99.90;;;;;;4971769;28;20475;-74
2023/06/30 00:15:56;;;;;;;7.78;2.25;;;15.30;99.90;;;;;;5038414;28;20050;-73
2023/06/30 00:18:21;;;;;;;7.30;2.67;;;15.30;99.90;;;;;;4971760;28;20126;-74
2023/06/30 00:20:47;;;;;;;7.43;2.60;;;15.30;99.90;;;;;;4971870;28;20134;-74
2023/06/30 00:23:13;;;;;;;5.95;2.08;;;15.30;99.90;;;;;;4971568;28;20125;-74
2023/06/30 00:25:39;;;;;;;7.43;2.50;;;15.30;99.90;;;;;;4971731;28;20105;-73
2023/06/30 00:28:05;;;;;;;5.03;2.25;;;15.30;99.90;;;;;;4971575;28;20039;-74
2023/06/30 00:30:30;;;;;;;5.10;2.13;;;15.30;99.90;;;;;;4971602;28;20043;-74
2023/06/30 00:32:56;;;;;;;5.95;2.50;;;15.30;99.90;;;;;;5040002;28;20394;-74
2023/06/30 00:35:22;;;;;;;9.32;2.88;;;15.30;99.90;;;;;;4974999;28;20042;-74
2023/06/30 00:37:48;;;;;;;6.15;2.20;;;15.30;99.90;;;;;;4974957;28;20043;-74
2023/06/30 00:40:16;;;;;;;5.88;2.30;;;15.30;99.90;;;;;;5042238;28;20055;-74
2023/06/30 00:42:42;;;;;;;7.47;3.00;;;15.30;99.90;;;;;;5042106;28;20501;-74
2023/06/30 00:45:08;;;;;;;7.72;2.53;;;15.30;99.90;;;;;;5042084;28;20051;-74
2023/06/30 00:47:33;;;;;;;6.72;2.50;;;15.30;99.90;;;;;;4974715;28;20047;-74
2023/06/30 00:49:59;;;;;;;7.65;2.92;;;15.30;99.90;;;;;;4974710;28;20046;-74
2023/06/30 00:52:25;;;;;;;6.82;2.50;;;15.20;99.90;;;;;;5042286;28;20134;-74
2023/06/30 00:54:51;;;;;;;7.00;2.30;;;15.20;99.90;;;;;;5041557;28;20117;-74
2023/06/30 00:57:16;;;;;;;5.90;2.60;;;15.20;99.90;;;;;;5041635;28;20055;-74
2023/06/30 00:59:42;;;;;;;7.93;3.15;;;15.10;99.90;;;;;;5041874;28;20047;-74
2023/06/30 01:02:16;;;;;;;11.98;3.03;;;15.10;99.90;;;;;;4974619;28;20047;-74
2023/06/30 01:05:00;;;;;;;10.80;3.13;;;15.00;99.90;;;;;;5041474;28;20050;-74
2023/06/30 01:07:37;;;;;;;8.48;3.33;;;15.00;99.90;;;;;;5041784;28;20050;-74
2023/06/30 01:10:13;;;;;;;8.52;3.03;;;15.00;99.90;;;;;;5041337;28;20059;-73
2023/06/30 01:12:43;;;;;;;7.60;2.70;;;15.00;99.90;;;;;;5041573;28;20077;-73
2023/06/30 01:15:10;;;;;;;7.50;3.70;;;15.00;99.90;;;;;;5041512;28;20057;-73
2023/06/30 01:17:45;;;;;;;7.40;2.60;;;14.90;99.90;;;;;;5041358;28;20051;-73
2023/06/30 01:20:12;;;;;;;6.72;2.80;;;14.90;99.90;;;;;;5041546;28;20054;-74
2023/06/30 01:22:48;;;;;;;8.65;2.33;;;14.90;99.90;;;;;;5041089;28;20055;-73
2023/06/30 01:25:20;;;;;;;7.55;2.35;;;14.90;99.90;;;;;;5041558;28;20051;-73
2023/06/30 01:27:47;;;;;;;8.88;2.50;;;14.90;99.90;;;;;;4974194;28;20081;-74
2023/06/30 01:30:14;;;;;;;7.45;2.33;;;14.90;99.90;;;;;;5041080;28;20059;-74
2023/06/30 01:32:40;;;;;;;4.43;2.28;;;14.90;99.90;;;;;;4974078;28;20047;-74
2023/06/30 01:35:06;;;;;;;11.80;2.60;;;14.90;99.90;;;;;;4973980;28;20121;-74
2023/06/30 01:37:32;;;;;;;7.60;2.70;;;14.90;99.90;;;;;;5041089;28;20055;-74
2023/06/30 01:39:59;;;;;;;9.48;2.13;;;14.90;99.90;;;;;;5041198;28;20101;-73
2023/06/30 01:42:25;;;;;;;8.95;2.20;;;14.90;99.90;;;;;;5040910;28;20047;-74
2023/06/30 01:44:52;;;;;;;4.88;1.92;;;14.90;99.90;;;;;;5039489;28;20046;-74
2023/06/30 01:47:18;;;;;;;6.93;2.28;;;14.90;99.90;;;;;;5040897;28;20043;-74
2023/06/30 01:49:44;;;;;;;7.30;2.40;;;14.90;99.90;;;;;;4974011;28;20054;-74
2023/06/30 01:52:10;;;;;;;7.32;2.38;;;14.80;99.90;;;;;;4973765;28;20126;-74
2023/06/30 01:54:36;;;;;;;6.75;2.28;;;14.80;99.90;;;;;;5040955;28;20196;-74
2023/06/30 01:57:01;;;;;;;8.73;2.75;;;14.90;99.90;;;;;;4973492;28;20039;-74
2023/06/30 01:59:27;;;;;;;6.85;2.15;;;14.90;99.90;;;;;;4973602;28;20051;-74
2023/06/30 02:01:53;;;;;;;9.32;2.03;;;14.90;99.90;;;;;;5040566;28;20043;-74
2023/06/30 02:04:18;;;;;;;7.75;2.20;;;14.80;99.90;;;;;;4973440;28;20058;-74
2023/06/30 02:06:44;;;;;;;5.97;2.00;;;14.80;99.90;;;;;;4973868;28;20051;-74
2023/06/30 02:09:12;;;;;;;8.60;2.38;;;14.90;99.90;;;;;;5040524;28;20059;-74
2023/06/30 02:11:39;;;;;;;7.47;2.15;;;14.80;99.90;;;;;;5040477;28;20073;-74
2023/06/30 02:14:04;;;;;;;6.72;2.60;;;14.80;99.90;;;;;;4973638;28;20482;-74
2023/06/30 02:16:31;;;;;;;6.18;2.22;;;14.90;99.90;;;;;;4973286;28;20123;-74
2023/06/30 02:18:56;;;;;;;6.72;2.50;;;14.90;99.90;;;;;;5040172;28;20043;-74
2023/06/30 02:21:24;;;;;;;6.40;2.35;;;14.80;99.90;;;;;;5040726;28;20043;-74
2023/06/30 02:23:49;;;;;;;5.63;2.03;;;14.80;99.90;;;;;;5040027;28;20042;-74
2023/06/30 02:26:15;;;;;;;7.43;2.75;;;14.80;99.90;;;;;;4973323;28;20049;-74
2023/06/30 02:28:41;;;;;;;6.57;2.92;;;14.70;99.90;;;;;;5039985;28;20046;-74
2023/06/30 02:31:07;;;;;;;7.82;2.15;;;14.70;99.90;;;;;;5040152;28;20070;-74
2023/06/30 02:33:32;;;;;;;5.45;2.65;;;14.70;99.90;;;;;;5039722;28;20413;-74
2023/06/30 02:35:58;;;;;;;7.03;2.33;;;14.60;99.90;;;;;;5040193;28;20058;-74
2023/06/30 02:38:24;;;;;;;10.18;2.70;;;14.60;99.90;;;;;;5039914;28;20093;-74
2023/06/30 02:40:49;;;;;;;5.10;2.40;;;14.60;99.90;;;;;;5039566;28;20093;-74
2023/06/30 02:43:15;;;;;;;7.82;2.78;;;14.50;99.90;;;;;;5039805;28;20133;-74
2023/06/30 02:45:40;;;;;;;7.28;2.88;;;14.50;99.90;;;;;;5040380;28;20054;-74
2023/06/30 02:48:06;;;;;;;8.18;3.10;;;14.50;99.90;;;;;;5039648;28;20439;-74
2023/06/30 02:50:32;;;;;;;7.38;2.80;;;14.50;99.90;;;;;;5039612;28;20050;-74
2023/06/30 02:53:01;;;;;;;6.38;2.88;;;14.40;99.90;;;;;;5039546;28;20051;-74
2023/06/30 02:55:27;;;;;;;6.38;3.30;;;14.40;99.90;;;;;;5039201;28;20398;-74
2023/06/30 02:57:53;;;;;;;10.85;3.47;;;14.30;99.90;;;;;;5039345;28;20047;-74
2023/06/30 03:00:19;;;;;;;7.63;3.03;;;14.30;99.90;;;;;;5039832;28;20043;-74
2023/06/30 03:02:45;;;;;;;7.38;3.00;;;14.30;99.90;;;;;;5039272;28;20479;-74
2023/06/30 03:05:11;;;;;;;7.63;3.40;;;14.20;99.90;;;;;;4972570;28;20108;-74
2023/06/30 03:07:36;;;;;;;7.75;3.15;;;14.20;99.90;;;;;;4972409;28;20043;-74
2023/06/30 03:10:02;;;;;;;8.23;3.00;;;14.20;99.90;;;;;;5038676;28;20051;-74
2023/06/30 03:12:28;;;;;;;6.03;3.00;;;14.20;99.90;;;;;;4971970;28;20051;-74
2023/06/30 03:14:54;;;;;;;7.05;3.42;;;14.10;99.90;;;;;;5037618;28;20418;-74
2023/06/30 03:17:20;;;;;;;6.55;3.50;;;14.10;99.90;;;;;;5038650;28;20483;-74
2023/06/30 03:19:46;;;;;;;6.95;3.95;;;14.00;99.90;;;;;;4972515;28;20078;-73
2023/06/30 03:22:11;;;;;;;11.95;4.32;;;14.00;99.90;;;;;;4972416;28;20066;-74
2023/06/30 03:24:37;;;;;;;9.20;3.60;;;14.00;99.90;;;;;;5038648;28;20138;-74
2023/06/30 03:27:04;;;;;;;7.85;4.00;;;14.00;99.90;;;;;;5038622;28;20047;-74
2023/06/30 03:29:29;;;;;;;10.32;3.70;;;14.00;99.90;;;;;;5038874;28;20051;-74
2023/06/30 03:31:55;;;;;;;8.32;3.70;;;13.90;99.90;;;;;;5038585;28;20096;-74
2023/06/30 03:34:20;;;;;;;6.55;1.90;;;13.90;99.90;;;;;;5038680;28;20111;-74
2023/06/30 03:36:46;;;;;;;4.65;2.03;;;14.00;99.90;;;;;;5038773;28;20042;-74
2023/06/30 03:39:12;;;;;;;3.78;1.58;;;14.00;99.90;;;;;;4972215;28;20042;-74
2023/06/30 03:41:37;;;;;;;3.60;1.85;;;14.10;99.90;;;;;;4972178;28;20093;-73
2023/06/30 03:44:03;;;;;;;3.95;1.67;;;14.20;99.90;;;;;;5038796;28;20050;-74
2023/06/30 03:46:29;;;;;;;4.68;1.60;;;14.30;99.90;;;;;;4972132;28;20512;-74
2023/06/30 03:48:54;;;;;;;4.50;1.60;;;14.50;99.90;;;;;;5038495;28;20050;-74
2023/06/30 03:51:20;;;;;;;5.45;1.70;;;14.50;99.90;;;;;;5038423;28;20567;-74
2023/06/30 03:53:46;;;;;;;5.95;1.52;;;14.60;99.90;;;;;;5038984;28;20039;-74
2023/06/30 03:56:12;;;;;;;3.75;1.20;;;14.80;99.90;;;;;;4972116;28;20121;-74
2023/06/30 03:58:38;;;;;;;2.75;1.20;;;14.80;99.90;;;;;;4971955;28;20096;-74
2023/06/30 04:01:04;;;;;;;4.72;1.35;;;14.80;99.90;;;;;;4971796;28;20043;-74
2023/06/30 04:03:30;;;;;;;4.55;1.35;;;14.80;99.90;;;;;;4971655;28;20575;-74
2023/06/30 04:05:56;;;;;;;3.85;1.50;;;14.90;99.90;;;;;;4971545;28;20055;-74
2023/06/30 04:08:22;;;;;;;3.05;1.30;;;14.90;99.90;;;;;;4973933;28;20051;-74
2023/06/30 04:10:48;;;;;;;5.72;1.80;;;15.00;99.90;;;;;;5042117;28;20058;-74
2023/06/30 04:13:13;;;;;;;5.82;1.38;;;15.10;99.90;;;;;;5042412;28;20066;-74
2023/06/30 04:15:39;;;;;;;3.67;1.30;;;15.10;99.90;;;;;;4968630;28;20043;-74
2023/06/30 04:18:05;;;;;;;2.90;1.35;;;15.20;99.90;;;;;;5022576;28;20096;-74
2023/06/30 04:20:30;;;;;;;3.28;1.30;;;15.30;99.90;;;;;;5022373;28;20059;-74
2023/06/30 04:22:56;;;;;;;5.85;1.45;;;15.40;99.90;;;;;;5022364;28;20051;-74
2023/06/30 04:25:22;;;;;;;9.38;1.55;;;15.50;99.90;;;;;;4955853;29;20403;-74
2023/06/30 04:27:47;;;;;;;5.78;1.58;;;15.60;99.90;;;;;;5022522;28;20043;-74
2023/06/30 04:30:13;;;;;;;3.40;1.40;;;15.60;99.90;;;;;;5022252;28;20051;-74
2023/06/30 04:32:39;;;;;;;3.88;1.27;;;15.70;99.90;;;;;;5022343;28;20471;-73
2023/06/30 04:35:05;;;;;;;2.83;1.13;;;15.80;99.90;;;;;;5022437;28;20044;-74
2023/06/30 04:37:31;;;;;;;4.47;1.38;;;15.90;99.90;;;;;;4955601;29;20058;-74
2023/06/30 04:39:57;;;;;;;3.72;1.20;;;16.00;99.90;;;;;;5022258;28;20044;-74
2023/06/30 04:42:23;;;;;;;6.25;1.27;;;16.10;99.90;;;;;;4955461;29;20048;-74
2023/06/30 04:44:49;;;;;;;5.82;1.10;;;16.10;99.90;;;;;;4955457;29;20047;-74
2023/06/30 04:47:18;;;;;;;4.03;1.20;;;16.20;99.90;;;;;;5021693;28;20479;-73
2023/06/30 04:49:44;;;;;;;6.03;1.20;;;16.30;99.90;;;;;;5021971;28;20383;-74
2023/06/30 04:52:09;;;;;;;4.47;1.10;;;16.40;99.90;;;;;;5022091;28;20051;-74
2023/06/30 04:54:35;;;;;;;6.28;1.48;;;16.50;99.90;;;;;;5021792;28;20493;-74
2023/06/30 04:57:01;;;;;;;3.80;1.27;;;16.50;99.90;;;;;;5021905;28;20134;-74
2023/06/30 04:59:26;;;;;;;4.30;0.93;;;16.60;99.90;;;;;;5021828;28;20440;-73
2023/06/30 05:01:52;;;;;;;2.85;1.05;;;16.70;99.90;;;;;;5021741;28;20069;-74
2023/06/30 05:04:18;;;;;;;2.38;1.15;;;16.80;99.90;;;;;;4954866;29;20091;-74
2023/06/30 05:06:43;;;;;;;5.15;1.20;;;16.80;99.90;;;;;;4955221;28;20114;-74
2023/06/30 05:09:09;;;;;;;3.53;1.20;;;16.90;99.90;;;;;;5021552;28;20384;-74
2023/06/30 05:11:35;;;;;;;4.43;1.38;;;16.90;99.90;;;;;;5021209;28;20359;-74
2023/06/30 05:14:00;;;;;;;6.28;1.85;;;16.80;99.90;;;;;;5021283;28;20055;-74
2023/06/30 05:16:26;;;;;;;4.38;1.48;;;16.80;99.90;;;;;;4954862;29;20043;-74
2023/06/30 05:18:52;;;;;;;6.72;1.50;;;16.80;99.90;;;;;;5020843;28;20395;-74
2023/06/30 05:21:18;;;;;;;4.28;1.63;;;16.80;99.90;;;;;;5021571;28;20051;-74
2023/06/30 05:23:43;;;;;;;4.82;1.40;;;16.90;99.90;;;;;;5021255;28;20086;-74
2023/06/30 05:26:10;;;;;;;6.00;1.38;;;17.00;99.90;;;;;;5021296;28;20177;-74
2023/06/30 05:28:36;;;;;;;10.88;1.65;;;17.20;99.90;;;;;;5021008;28;20120;-74
2023/06/30 05:31:03;;;;;;;5.50;1.50;;;17.30;99.90;;;;;;5021003;28;20047;-74
2023/06/30 05:33:28;;;;;;;3.95;1.17;;;17.20;99.90;;;;;;4954590;29;20177;-73
2023/06/30 05:35:54;;;;;;;7.47;1.23;;;17.40;99.90;;;;;;5021329;28;20134;-74
2023/06/30 05:38:19;;;;;;;3.72;1.38;;;17.40;99.90;;;;;;4954845;29;20039;-73
2023/06/30 05:40:45;;;;;;;5.05;1.60;;;17.60;99.90;;;;;;4954465;29;20051;-74
2023/06/30 05:43:11;;;;;;;4.55;1.10;;;17.60;99.90;;;;;;5020841;28;20051;-74
2023/06/30 05:45:37;;;;;;;3.38;1.30;;;17.60;99.90;;;;;;5020999;28;20092;-74
2023/06/30 05:48:03;;;;;;;5.15;1.10;;;17.50;99.90;;;;;;4954235;29;20117;-74
2023/06/30 05:50:29;;;;;;;5.38;1.30;;;17.40;99.90;;;;;;5020460;28;20437;-73
2023/06/30 05:52:55;;;;;;;3.35;1.15;;;17.40;99.90;;;;;;5020786;28;20113;-73
2023/06/30 05:55:20;;;;;;;6.35;1.45;;;17.40;99.90;;;;;;5021091;28;20054;-73
2023/06/30 05:57:47;;;;;;;5.50;1.17;;;17.60;99.90;;;;;;5020551;28;20051;-73
2023/06/30 06:00:13;;;;;;;4.80;1.45;;;17.60;99.90;;;;;;4954496;29;20035;-73
2023/06/30 06:02:38;;;;;;;4.65;1.10;;;17.80;99.90;;;;;;4954321;29;20104;-73
2023/06/30 06:05:05;;;;;;;2.95;1.40;;;17.90;99.90;;;;;;5020352;28;20446;-73
2023/06/30 06:07:30;;;;;;;5.63;1.33;;;18.00;99.90;;;;;;4954174;29;20042;-74
2023/06/30 06:09:56;;;;;;;3.22;1.30;;;18.00;99.90;;;;;;5020162;28;20445;-73
2023/06/30 06:12:22;;;;;;;3.58;1.63;;;18.10;99.90;;;;;;5020082;28;20051;-73
2023/06/30 06:14:48;;;;;;;5.85;1.38;;;18.30;99.90;;;;;;5020558;28;20066;-73
2023/06/30 06:17:14;;;;;;;5.75;1.20;;;18.40;99.90;;;;;;5020091;28;20051;-73
2023/06/30 06:19:39;;;;;;;3.03;1.15;;;18.50;99.90;;;;;;4954162;29;20043;-73
2023/06/30 06:22:05;;;;;;;3.95;1.27;;;18.50;99.90;;;;;;4953954;29;20407;-74
2023/06/30 06:24:32;;;;;;;3.35;1.13;;;18.60;99.90;;;;;;4953620;29;20049;-73
2023/06/30 06:26:57;;;;;;;5.57;1.40;;;18.80;99.90;;;;;;4953941;29;20043;-73
2023/06/30 06:29:23;;;;;;;6.10;1.30;;;18.80;99.90;;;;;;5020144;28;20138;-73
2023/06/30 06:31:52;;;;;;;3.55;1.10;;;18.70;99.90;;;;;;5019390;28;20407;-73
2023/06/30 06:34:19;;;;;;;4.70;1.00;;;18.70;99.90;;;;;;5020290;28;20050;-73
2023/06/30 06:36:45;;;;;;;4.07;1.10;;;18.50;99.90;;;;;;5020043;28;20487;-73
2023/06/30 06:39:11;;;;;;;5.45;1.25;;;18.30;99.90;;;;;;4953424;29;20526;-72
2023/06/30 06:41:37;;;;;;;6.35;1.05;;;18.20;99.90;;;;;;5019733;28;20077;-73
2023/06/30 06:44:04;;;;;;;5.18;1.10;;;18.00;99.90;;;;;;4949064;29;20043;-72
2023/06/30 06:46:30;;;;;;;5.68;1.20;;;18.10;99.90;;;;;;5008395;28;20400;-72
2023/06/30 06:48:55;;;;;;;4.38;1.30;;;18.10;99.90;;;;;;5000036;28;20052;-72
2023/06/30 06:51:22;;;;;;;4.38;1.35;;;18.10;99.90;;;;;;4999443;28;20487;-72
2023/06/30 06:53:47;;;;;;;4.63;1.30;;;18.20;99.90;;;;;;5000417;28;20057;-72
2023/06/30 06:56:13;;;;;;;5.75;1.27;;;18.40;99.90;;;;;;4999933;28;20036;-72
2023/06/30 06:58:39;;;;;;;5.50;1.42;;;18.50;99.90;;;;;;4999897;28;20050;-71
2023/06/30 07:01:05;;;;;;;6.38;0.90;;;18.80;99.90;;;;;;4933891;28;20463;-72
2023/06/30 07:03:31;;;;;;;3.30;0.90;;;18.80;99.90;;;;;;4934241;28;20040;-72
2023/06/30 07:05:57;;;;;;;3.35;1.17;;;19.00;99.90;;;;;;4934198;28;20395;-73
2023/06/30 07:08:24;;;;;;;3.30;0.60;;;19.20;99.90;;;;;;4999925;28;20103;-72
2023/06/30 07:10:50;;;;;;;3.50;1.30;;;19.00;99.90;;;;;;4999356;28;20055;-72
2023/06/30 07:13:20;;;;;;;5.45;1.23;;;19.00;99.90;;;;;;4934165;28;20063;-72
2023/06/30 07:15:47;;;;;;;3.45;1.23;;;18.90;99.90;;;;;;4999965;28;20047;-76
2023/06/30 07:18:17;;;;;;;3.42;0.93;;;18.90;99.90;;;;;;4999349;28;20134;-73
2023/06/30 07:20:54;;;;;;;4.75;1.17;;;18.90;99.90;;;;;;4999462;28;20376;-72
2023/06/30 07:23:20;;;;;;;4.97;1.20;;;19.00;99.90;;;;;;4999644;28;20052;-72
2023/06/30 07:25:46;;;;;;;6.93;1.90;;;18.90;99.90;;;;;;4999313;28;20050;-72
2023/06/30 07:28:11;;;;;;;8.05;2.20;;;18.80;99.90;;;;;;4999279;28;20051;-72
2023/06/30 07:30:39;;;;;;;7.72;1.30;;;18.50;99.90;;;;;;4999745;28;20384;-72
2023/06/30 07:33:05;;;;;;;6.68;1.40;;;18.60;99.90;;;;;;4999219;28;20063;-72
2023/06/30 07:35:30;;;;;;;7.60;1.30;;;18.80;99.90;;;;;;4933900;28;20040;-72
2023/06/30 07:37:56;;;;;;;5.75;1.38;;;19.00;99.90;;;;;;4998824;28;20052;-73
2023/06/30 07:40:22;;;;;;;4.90;1.20;;;19.20;99.90;;;;;;4933502;28;20055;-73
2023/06/30 07:42:47;;;;;;;4.38;1.45;;;19.40;99.90;;;;;;4933338;29;20051;-73
2023/06/30 07:45:17;;;;;;;6.20;1.38;;;19.40;99.90;;;;;;4933801;28;20052;-72
2023/06/30 07:47:44;;;;;;;4.68;1.00;;;19.60;99.90;;;;;;4999041;28;20043;-72
2023/06/30 07:50:12;;;;;;;5.43;1.30;;;19.60;99.90;;;;;;4999272;28;20106;-71
2023/06/30 07:52:43;;;;;;;3.50;0.90;;;19.90;99.90;;;;;;4933320;28;20065;-72
2023/06/30 07:55:10;;;;;;;4.78;1.48;;;20.10;99.90;;;;;;4998913;28;20044;-72
2023/06/30 07:57:35;;;;;;;7.63;1.33;;;20.10;99.90;;;;;;4933593;28;20051;-72
2023/06/30 08:00:01;;;;;;;6.70;1.73;;;20.20;99.90;;;;;;4933213;29;20514;-72
2023/06/30 08:02:27;;;;;;;3.88;1.58;;;20.10;99.90;;;;;;4933491;28;20094;-72
2023/06/30 08:04:53;;;;;;;5.50;1.40;;;20.20;99.90;;;;;;4933208;28;20055;-74
2023/06/30 08:07:18;;;;;;;6.78;1.48;;;20.40;99.90;;;;;;4999301;28;20498;-72
2023/06/30 08:09:44;;;;;;;4.95;1.15;;;20.60;99.90;;;;;;4998527;28;20055;-73
2023/06/30 08:12:10;;;;;;;4.85;1.15;;;20.70;99.90;;;;;;4998579;28;20060;-72
2023/06/30 08:14:36;;;;;;;4.15;0.93;;;20.80;99.90;;;;;;4933334;28;20040;-73
2023/06/30 08:17:02;;;;;;;4.43;1.20;;;21.00;99.90;;;;;;4933308;28;20526;-73
2023/06/30 08:19:28;;;;;;;3.42;0.98;;;21.10;99.90;;;;;;4998563;28;20074;-73
2023/06/30 08:21:54;;;;;;;7.40;1.60;;;21.30;99.90;;;;;;4932995;28;20081;-74
2023/06/30 08:24:20;;;;;;;4.70;1.30;;;21.20;99.90;;;;;;4932811;28;20165;-73
2023/06/30 08:26:46;;;;;;;3.83;1.30;;;21.10;99.90;;;;;;4933182;28;20131;-73
2023/06/30 08:29:12;;;;;;;2.92;1.00;;;21.20;99.90;;;;;;4998797;28;20086;-73
2023/06/30 08:31:37;;;;;;;4.38;1.02;;;21.20;99.90;;;;;;4998457;28;20083;-73
2023/06/30 08:34:04;;;;;;;6.25;1.48;;;21.30;99.90;;;;;;4932887;29;20036;-73
2023/06/30 08:36:30;;;;;;;3.85;1.10;;;21.50;99.90;;;;;;4998351;28;20055;-73
2023/06/30 08:38:55;;;;;;;4.18;1.05;;;21.40;99.90;;;;;;4998447;28;20095;-73
2023/06/30 08:41:22;;;;;;;4.80;1.27;;;21.20;99.90;;;;;;4998404;28;20056;-73
2023/06/30 08:43:49;;;;;;;8.15;1.40;;;21.20;99.90;;;;;;4998422;28;20043;-74
2023/06/30 08:46:17;;;;;;;6.75;1.35;;;21.40;99.90;;;;;;4998402;28;20082;-74
2023/06/30 08:48:44;;;;;;;4.55;1.23;;;21.00;99.90;;;;;;4998481;28;20408;-73
2023/06/30 08:51:10;;;;;;;3.40;1.40;;;21.00;99.90;;;;;;4998415;28;20052;-73
2023/06/30 08:53:36;;;;;;;5.63;1.35;;;21.10;99.90;;;;;;4999555;28;20051;-74
2023/06/30 08:56:05;;;;;;;2.40;0.90;;;21.20;99.90;;;;;;5002154;28;20055;-73
2023/06/30 08:58:30;;;;;;;4.55;1.00;;;21.30;99.90;;;;;;5002023;28;20060;-73
2023/06/30 09:00:56;;;;;;;6.80;1.30;;;21.10;99.90;;;;;;5001886;28;20043;-73
2023/06/30 09:03:23;;;;;;;7.45;1.00;;;21.30;99.90;;;;;;5001706;28;20055;-73
2023/06/30 09:05:54;;;;;;;4.72;1.10;;;21.40;99.90;;;;;;5001756;28;20047;-73
2023/06/30 09:08:23;;;;;;;3.10;0.80;;;21.50;99.90;;;;;;5001728;28;20407;-74
2023/06/30 09:10:50;;;;;;;8.40;1.73;;;21.60;99.90;;;;;;5001531;28;20055;-73
2023/06/30 09:13:18;;;;;;;3.85;1.13;;;21.50;99.90;;;;;;5001574;28;20051;-73
2023/06/30 09:15:45;;;;;;;5.82;1.35;;;21.60;99.90;;;;;;5001604;28;20054;-74
2023/06/30 09:18:11;;;;;;;4.30;0.90;;;21.80;99.90;;;;;;5001646;28;20479;-74
2023/06/30 09:20:38;;;;;;;4.93;1.05;;;21.80;99.90;;;;;;5001560;28;20051;-72
2023/06/30 09:23:07;;;;;;;3.28;1.00;;;21.80;99.90;;;;;;5001245;28;20090;-72
2023/06/30 09:25:39;;;;;;;3.42;0.95;;;22.00;99.90;;;;;;5001307;28;20055;-72
2023/06/30 09:28:13;;;;;;;6.03;1.00;;;21.70;99.90;;;;;;5001431;28;20055;-73
2023/06/30 09:30:42;;;;;;;5.95;1.10;;;21.80;99.90;;;;;;5001370;28;20122;-73
2023/06/30 09:33:08;;;;;;;6.20;1.30;;;21.90;99.90;;;;;;5001174;28;20087;-74
2023/06/30 09:35:43;;;;;;;5.47;1.30;;;22.00;99.90;;;;;;5001702;28;20091;-74
2023/06/30 09:38:16;;;;;;;4.50;1.40;;;22.10;99.90;;;;;;4935569;28;20051;-74
2023/06/30 09:40:43;;;;;;;4.97;1.25;;;22.40;99.90;;;;;;4935747;28;20080;-74
2023/06/30 09:43:25;;;;;;;3.17;1.13;;;22.60;99.90;;;;;;5001179;28;20499;-74
2023/06/30 09:45:55;;;;;;;5.47;1.05;;;22.70;99.90;;;;;;4935464;28;20050;-74
2023/06/30 09:48:26;;;;;;;6.07;1.50;;;22.80;99.90;;;;;;5001519;28;20052;-73
2023/06/30 09:50:52;;;;;;;3.15;1.05;;;22.70;99.90;;;;;;5001111;28;20058;-73
2023/06/30 09:53:19;;;;;;;4.22;1.08;;;22.50;99.90;;;;;;4935432;28;20123;-73
2023/06/30 09:55:52;;;;;;;3.30;1.30;;;22.50;99.90;;;;;;4935557;28;20047;-72
2023/06/30 09:58:19;;;;;;;3.95;1.23;;;22.40;99.90;;;;;;4935418;28;20115;-73
2023/06/30 10:00:46;;;;;;;4.93;1.30;;;22.30;99.90;;;;;;4935159;28;20113;-75
2023/06/30 10:03:16;;;;;;;3.45;1.17;;;22.30;99.90;;;;;;5000715;28;20131;-74
2023/06/30 10:05:43;;;;;;;6.65;1.30;;;22.40;99.90;;;;;;4999778;28;20078;-74
2023/06/30 10:08:11;;;;;;;3.63;1.25;;;22.50;99.90;;;;;;5000778;28;20044;-77
2023/06/30 10:10:37;;;;;;;6.25;1.15;;;22.70;99.90;;;;;;5000831;28;20062;-72
2023/06/30 10:13:05;;;;;;;4.50;1.23;;;22.80;99.90;;;;;;4935125;28;20075;-72
2023/06/30 10:15:31;;;;;;;3.72;1.05;;;22.70;99.90;;;;;;4935099;28;20134;-73
2023/06/30 10:17:58;;;;;;;4.35;1.40;;;22.40;99.90;;;;;;5000840;28;20147;-74
2023/06/30 10:20:24;;;;;;;5.05;1.73;;;22.20;99.90;;;;;;5000987;28;20082;-72
2023/06/30 10:22:52;;;;;;;4.28;1.23;;;22.70;99.90;;;;;;5000666;28;20048;-74
2023/06/30 10:25:20;;;;;;;6.15;1.00;;;22.70;99.90;;;;;;5000442;28;20557;-74
2023/06/30 10:27:47;;;;;;;4.95;1.33;;;22.60;99.90;;;;;;4934916;28;20036;-73
2023/06/30 10:30:13;;;;;;;3.65;1.33;;;22.30;99.90;;;;;;4935106;28;20062;-73
2023/06/30 10:32:39;;;;;;;4.05;1.85;;;22.10;99.90;;;;;;4934861;28;20051;-73
2023/06/30 10:35:07;;;;;;;6.95;1.30;;;21.80;99.90;;;;;;4934594;29;20050;-73
2023/06/30 10:37:34;;;;;;;4.57;1.30;;;21.80;99.90;;;;;;5000487;28;20162;-73
2023/06/30 10:39:59;;;;;;;4.70;1.80;;;22.10;99.90;;;;;;4934788;28;20048;-73
2023/06/30 10:42:26;;;;;;;5.93;1.27;;;22.20;99.90;;;;;;4934532;29;20054;-73
2023/06/30 10:44:58;;;;;;;5.45;1.45;;;22.40;99.90;;;;;;4934591;28;20131;-73
2023/06/30 10:47:27;;;;;;;3.40;1.10;;;22.50;99.90;;;;;;5000211;28;20483;-73
2023/06/30 10:49:54;;;;;;;3.17;1.10;;;22.50;99.90;;;;;;5000411;28;20500;-73
2023/06/30 10:52:30;;;;;;;3.75;1.38;;;22.60;99.90;;;;;;4934357;28;20052;-73
2023/06/30 10:55:04;;;;;;;5.35;1.13;;;22.40;99.90;;;;;;5000166;28;20059;-73
2023/06/30 10:57:35;;;;;;;3.08;1.10;;;22.40;99.90;;;;;;5000033;28;20127;-73
2023/06/30 11:00:14;;;;;;;3.45;1.00;;;22.30;99.90;;;;;;5016265;28;20056;-73
2023/06/30 11:02:59;;;;;;;5.93;1.20;;;22.20;99.90;;;;;;4934577;28;20125;-73
2023/06/30 11:05:25;;;;;;;3.05;1.10;;;22.00;99.90;;;;;;5000266;28;20521;-73
2023/06/30 11:08:03;;;;;;;4.28;1.25;;;22.20;99.90;;;;;;4999973;28;20055;-73
2023/06/30 11:10:32;;;;;;;4.80;1.40;;;22.20;99.90;;;;;;4999619;28;20143;-73
2023/06/30 11:13:05;;;;;;;3.38;0.80;;;22.20;99.90;;;;;;4999808;28;20511;-73
2023/06/30 11:15:47;;;;;;;3.05;0.95;;;22.30;99.90;;;;;;4999799;28;20060;-73
2023/06/30 11:18:23;;;;;;;4.50;0.90;;;22.70;99.90;;;;;;4934410;28;20059;-73
2023/06/30 11:21:07;;;;;;;4.45;1.30;;;22.90;99.90;;;;;;4934066;28;20063;-73
2023/06/30 11:23:39;;;;;;;3.70;0.95;;;23.30;99.90;;;;;;4999939;28;20499;-73
2023/06/30 11:26:16;;;;;;;2.63;0.95;;;23.40;99.90;;;;;;4934042;28;20449;-73
2023/06/30 11:28:43;;;;;;;3.95;1.30;;;23.40;99.90;;;;;;4934127;28;20074;-73
2023/06/30 11:31:10;;;;;;;3.92;1.00;;;23.40;99.90;;;;;;4999707;28;20064;-73
2023/06/30 11:33:43;;;;;;;5.28;1.40;;;23.40;99.90;;;;;;4933957;28;20135;-73
2023/06/30 11:36:16;;;;;;;2.60;0.98;;;23.30;99.90;;;;;;4999318;28;20052;-73
2023/06/30 11:38:46;;;;;;;4.38;1.23;;;23.20;99.90;;;;;;4934350;28;20055;-73
2023/06/30 11:41:20;;;;;;;3.67;0.98;;;23.30;99.90;;;;;;4999558;28;20530;-73
2023/06/30 11:43:58;;;;;;;3.90;0.90;;;23.20;99.90;;;;;;4933801;28;20048;-73
2023/06/30 11:46:24;;;;;;;7.60;1.10;;;23.20;99.90;;;;;;4933575;28;20051;-73
2023/06/30 11:48:50;;;;;;;4.80;1.15;;;23.20;99.90;;;;;;4933747;28;20077;-73
2023/06/30 11:51:17;;;;;;;4.22;1.33;;;23.00;99.90;;;;;;4933622;28;20060;-74
2023/06/30 11:53:49;;;;;;;4.80;1.00;;;23.00;99.90;;;;;;4999537;28;20411;-74
2023/06/30 11:56:18;;;;;;;2.22;0.80;;;23.20;99.90;;;;;;4999466;28;20070;-73
2023/06/30 11:58:50;;;;;;;3.28;0.82;;;23.40;99.90;;;;;;4999317;28;20051;-73
2023/06/30 12:01:17;;;;;;;5.40;1.10;;;23.30;98.50;;;;;;4933779;28;20048;-73
2023/06/30 12:03:45;;;;;;;5.40;1.40;;;23.40;99.90;;;;;;4998942;28;20454;-73
2023/06/30 12:06:16;;;;;;;4.43;1.17;;;23.10;99.90;;;;;;4933690;28;20047;-74
2023/06/30 12:08:43;;;;;;;3.40;1.10;;;23.00;99.90;;;;;;4933495;28;20044;-75
2023/06/30 12:11:09;;;;;;;3.38;1.20;;;22.80;99.90;;;;;;4999286;28;20071;-75
2023/06/30 12:13:41;;;;;;;5.38;1.15;;;23.00;99.90;;;;;;4933323;29;20051;-74
2023/06/30 12:16:07;;;;;;;3.90;1.27;;;23.10;99.90;;;;;;5015243;28;20133;-74
2023/06/30 12:18:37;;;;;;;7.13;1.40;;;23.20;99.90;;;;;;4999136;28;20087;-73
2023/06/30 12:21:13;;;;;;;3.70;1.10;;;23.20;99.90;;;;;;4933364;28;20044;-73
2023/06/30 12:23:45;;;;;;;4.88;1.52;;;23.30;99.90;;;;;;4998793;28;20117;-73
2023/06/30 12:26:11;;;;;;;4.55;1.45;;;23.30;99.90;;;;;;4933100;28;20419;-73
2023/06/30 12:28:38;;;;;;;3.00;1.20;;;23.10;99.90;;;;;;4934236;28;20511;-73
2023/06/30 12:31:03;;;;;;;4.07;1.38;;;22.80;99.90;;;;;;5002841;28;20039;-73
2023/06/30 12:33:29;;;;;;;5.25;1.70;;;22.60;99.90;;;;;;5002573;28;20130;-73
2023/06/30 12:35:55;;;;;;;5.90;1.60;;;22.40;99.90;;;;;;5002626;28;20483;-73
2023/06/30 12:38:20;;;;;;;4.75;1.50;;;22.40;99.90;;;;;;4936232;28;20052;-73
2023/06/30 12:40:46;;;;;;;4.38;1.38;;;22.40;99.90;;;;;;5002267;28;20110;-73
2023/06/30 12:43:12;;;;;;;4.78;1.40;;;22.70;99.90;;;;;;5002142;28;20043;-73
2023/06/30 12:45:37;;;;;;;3.13;1.30;;;22.90;99.90;;;;;;4936361;29;20102;-73